createdAt,value
2023-02-15T00:00:20.883Z,26.42
2023-02-15T00:00:52.555Z,26.02
2023-02-15T00:01:24.270Z,25.83
2023-02-15T00:01:56.472Z,26.55
2023-02-15T00:02:28.497Z,25.23
2023-02-15T00:03:00.115Z,25.88
2023-02-15T00:03:31.750Z,26.70
2023-02-15T00:04:04.832Z,25.98
2023-02-15T00:04:48.635Z,26.25
2023-02-15T00:05:20.249Z,25.02
2023-02-15T00:05:51.878Z,24.98
2023-02-15T00:06:23.848Z,25.33
2023-02-15T00:06:55.413Z,24.90
2023-02-15T00:07:27.131Z,25.00
2023-02-15T00:07:58.816Z,23.58
2023-02-15T00:08:30.589Z,24.63
2023-02-15T00:09:03.836Z,25.17
2023-02-15T00:09:35.451Z,24.38
2023-02-15T00:10:08.127Z,24.15
2023-02-15T00:10:39.709Z,23.67
2023-02-15T00:11:16.728Z,24.95
2023-02-15T00:11:51.441Z,24.05
2023-02-15T00:12:23.172Z,23.33
2023-02-15T00:12:54.833Z,24.02
2023-02-15T00:13:26.407Z,24.17
2023-02-15T00:13:59.499Z,22.42
2023-02-15T00:14:31.077Z,23.52
2023-02-15T00:15:02.686Z,23.67
2023-02-15T00:15:34.249Z,23.33
2023-02-15T00:16:08.306Z,24.23
2023-02-15T00:16:41.328Z,22.60
2023-02-15T00:17:12.991Z,23.10
2023-02-15T00:17:44.585Z,24.83
2023-02-15T00:18:16.384Z,23.73
2023-02-15T00:18:48.222Z,23.45
2023-02-15T00:19:22.008Z,23.27
2023-02-15T00:19:53.832Z,23.20
2023-02-15T00:20:25.402Z,22.88
2023-02-15T00:20:57.246Z,23.85
2023-02-15T00:21:33.121Z,23.20
2023-02-15T00:22:04.762Z,23.50
2023-02-15T00:22:36.499Z,22.35
2023-02-15T00:23:08.283Z,23.77
2023-02-15T00:23:39.948Z,23.48
2023-02-15T00:24:14.661Z,23.02
2023-02-15T00:24:46.256Z,23.45
2023-02-15T00:25:17.978Z,24.63
2023-02-15T00:25:49.912Z,23.92
2023-02-15T00:26:21.601Z,23.52
2023-02-15T00:26:53.414Z,24.20
2023-02-15T00:27:25.406Z,24.10
2023-02-15T00:27:57.002Z,24.77
2023-02-15T00:28:28.999Z,24.98
2023-02-15T00:29:01.281Z,24.77
2023-02-15T00:29:32.884Z,25.08
2023-02-15T00:30:04.812Z,24.60
2023-02-15T00:30:36.495Z,25.75
2023-02-15T00:31:10.923Z,24.20
2023-02-15T00:31:43.039Z,26.02
2023-02-15T00:32:14.640Z,25.13
2023-02-15T00:32:48.796Z,25.80
2023-02-15T00:33:20.749Z,24.98
2023-02-15T00:33:52.460Z,26.02
2023-02-15T00:34:27.181Z,25.75
2023-02-15T00:34:58.865Z,26.23
2023-02-15T00:35:30.560Z,26.65
2023-02-15T00:36:03.402Z,25.20
2023-02-15T00:36:35.130Z,26.67
2023-02-15T00:37:06.729Z,25.95
2023-02-15T00:37:38.315Z,26.08
2023-02-15T00:38:09.917Z,26.52
2023-02-15T00:38:41.496Z,26.02
2023-02-15T00:39:13.766Z,26.50
2023-02-15T00:39:45.353Z,25.25
2023-02-15T00:40:17.021Z,26.67
2023-02-15T00:40:54.182Z,26.35
2023-02-15T00:41:26.134Z,27.45
2023-02-15T00:41:57.841Z,27.35
2023-02-15T00:42:29.508Z,26.17
2023-02-15T00:43:01.781Z,27.15
2023-02-15T00:43:35.246Z,27.08
2023-02-15T00:44:07.452Z,26.00
2023-02-15T00:44:39.127Z,26.48
2023-02-15T00:45:10.754Z,26.73
2023-02-15T00:45:42.367Z,24.55
2023-02-15T00:46:14.003Z,26.10
2023-02-15T00:46:45.627Z,24.95
2023-02-15T00:47:17.252Z,25.70
2023-02-15T00:47:49.006Z,26.20
2023-02-15T00:48:20.956Z,26.60
2023-02-15T00:48:52.685Z,27.02
2023-02-15T00:49:24.303Z,25.80
2023-02-15T00:49:55.885Z,26.15
2023-02-15T00:50:27.798Z,25.77
2023-02-15T00:51:01.692Z,25.85
2023-02-15T00:51:34.028Z,25.25
2023-02-15T00:52:05.627Z,26.80
2023-02-15T00:52:37.206Z,26.20
2023-02-15T00:53:08.856Z,26.00
2023-02-15T00:53:40.714Z,25.15
2023-02-15T00:54:12.336Z,26.27
2023-02-15T00:54:44.074Z,26.05
2023-02-15T00:55:15.676Z,26.13
2023-02-15T00:55:47.905Z,25.63
2023-02-15T00:56:19.671Z,25.67
2023-02-15T00:56:51.396Z,26.23
2023-02-15T00:57:22.970Z,25.92
2023-02-15T00:57:54.561Z,26.42
2023-02-15T00:58:26.301Z,26.02
2023-02-15T00:58:57.899Z,25.70
2023-02-15T00:59:35.600Z,25.50
2023-02-15T01:00:07.887Z,26.25
2023-02-15T01:00:40.851Z,25.17
2023-02-15T01:01:16.201Z,26.77
2023-02-15T01:01:48.002Z,25.23
2023-02-15T01:02:19.610Z,26.50
2023-02-15T01:02:51.207Z,25.92
2023-02-15T01:03:22.948Z,26.52
2023-02-15T01:03:54.665Z,26.23
2023-02-15T01:04:26.488Z,24.35
2023-02-15T01:04:58.095Z,25.10
2023-02-15T01:05:30.780Z,25.92
2023-02-15T01:06:04.176Z,24.60
2023-02-15T01:06:35.877Z,24.60
2023-02-15T01:07:07.581Z,24.55
2023-02-15T01:07:39.413Z,25.67
2023-02-15T01:08:11.240Z,24.35
2023-02-15T01:08:43.128Z,23.95
2023-02-15T01:09:15.163Z,24.20
2023-02-15T01:09:46.815Z,23.77
2023-02-15T01:10:18.918Z,23.63
2023-02-15T01:10:50.925Z,24.67
2023-02-15T01:11:23.869Z,25.35
2023-02-15T01:11:55.579Z,24.90
2023-02-15T01:12:27.163Z,25.10
2023-02-15T01:12:58.801Z,26.17
2023-02-15T01:13:30.362Z,26.23
2023-02-15T01:14:02.010Z,25.33
2023-02-15T01:14:33.628Z,24.75
2023-02-15T01:15:05.519Z,25.77
2023-02-15T01:15:37.180Z,25.73
2023-02-15T01:16:09.634Z,25.65
2023-02-15T01:16:41.317Z,26.15
2023-02-15T01:17:13.073Z,25.48
2023-02-15T01:17:47.023Z,25.77
2023-02-15T01:18:18.808Z,25.77
2023-02-15T01:18:50.772Z,24.45
2023-02-15T01:19:22.447Z,24.58
2023-02-15T01:19:54.010Z,24.98
2023-02-15T01:20:29.075Z,25.00
2023-02-15T01:21:01.267Z,24.05
2023-02-15T01:21:35.609Z,24.92
2023-02-15T01:22:07.254Z,24.17
2023-02-15T01:22:39.118Z,24.00
2023-02-15T01:23:10.747Z,24.40
2023-02-15T01:23:43.399Z,22.52
2023-02-15T01:24:15.553Z,23.65
2023-02-15T01:24:50.348Z,24.40
2023-02-15T01:25:24.327Z,24.48
2023-02-15T01:25:55.929Z,22.58
2023-02-15T01:26:27.700Z,24.45
2023-02-15T01:26:59.330Z,22.90
2023-02-15T01:27:33.880Z,22.90
2023-02-15T01:28:06.083Z,21.98
2023-02-15T01:28:38.209Z,23.25
2023-02-15T01:29:09.898Z,22.13
2023-02-15T01:29:41.511Z,23.02
2023-02-15T01:30:14.639Z,23.17
2023-02-15T01:30:46.466Z,23.98
2023-02-15T01:31:21.195Z,22.88
2023-02-15T01:31:52.970Z,23.42
2023-02-15T01:32:24.815Z,22.55
2023-02-15T01:32:56.783Z,22.25
2023-02-15T01:33:28.811Z,21.27
2023-02-15T01:34:00.432Z,23.13
2023-02-15T01:34:32.444Z,23.00
2023-02-15T01:35:04.657Z,22.95
2023-02-15T01:35:37.724Z,23.42
2023-02-15T01:36:09.318Z,23.08
2023-02-15T01:36:41.061Z,23.20
2023-02-15T01:37:12.708Z,25.58
2023-02-15T01:37:44.508Z,24.52
2023-02-15T01:38:16.100Z,24.48
2023-02-15T01:38:48.008Z,23.83
2023-02-15T01:39:20.070Z,24.15
2023-02-15T01:39:51.806Z,25.25
2023-02-15T01:40:24.674Z,25.48
2023-02-15T01:41:16.403Z,25.33
2023-02-15T01:41:48.015Z,23.95
2023-02-15T01:42:24.737Z,23.52
2023-02-15T01:42:56.948Z,25.92
2023-02-15T01:43:44.850Z,25.50
2023-02-15T01:45:01.572Z,26.13
2023-02-15T01:45:33.543Z,23.40
2023-02-15T01:46:05.311Z,24.02
2023-02-15T01:46:44.002Z,24.88
2023-02-15T01:47:46.176Z,24.42
2023-02-15T01:48:23.847Z,23.55
2023-02-15T01:49:01.217Z,24.40
2023-02-15T01:49:34.800Z,24.55
2023-02-15T01:50:27.599Z,24.02
2023-02-15T01:51:03.109Z,24.02
2023-02-15T01:51:37.782Z,25.45
2023-02-15T01:52:11.313Z,24.50
2023-02-15T01:53:08.678Z,24.35
2023-02-15T01:53:53.103Z,24.65
2023-02-15T01:54:30.517Z,22.83
2023-02-15T01:55:03.608Z,25.02
2023-02-15T01:55:40.398Z,24.52
2023-02-15T01:56:25.791Z,25.52
2023-02-15T01:57:10.213Z,24.45
2023-02-15T01:57:42.738Z,23.73
2023-02-15T01:58:15.255Z,23.90
2023-02-15T01:58:48.476Z,23.80
2023-02-15T01:59:23.173Z,23.33
2023-02-15T01:59:59.516Z,23.38
2023-02-15T02:00:31.720Z,22.98
2023-02-15T02:01:05.958Z,24.05
2023-02-15T02:01:39.066Z,24.00
2023-02-15T02:02:14.592Z,24.60
2023-02-15T02:02:51.294Z,25.40
2023-02-15T02:03:37.574Z,25.17
2023-02-15T02:04:19.870Z,23.60
2023-02-15T02:04:54.381Z,23.27
2023-02-15T02:05:26.847Z,23.70
2023-02-15T02:05:58.704Z,25.08
2023-02-15T02:06:31.726Z,25.08
2023-02-15T02:07:04.860Z,25.08
2023-02-15T02:07:40.816Z,24.77
2023-02-15T02:08:12.460Z,22.77
2023-02-15T02:08:45.134Z,23.88
2023-02-15T02:09:17.328Z,24.25
2023-02-15T02:09:49.740Z,23.65
2023-02-15T02:10:24.223Z,25.45
2023-02-15T02:10:55.803Z,23.63
2023-02-15T02:11:27.715Z,22.98
2023-02-15T02:11:59.722Z,24.08
2023-02-15T02:12:31.884Z,24.67
2023-02-15T02:13:06.948Z,24.73
2023-02-15T02:13:40.288Z,24.85
2023-02-15T02:14:11.989Z,24.67
2023-02-15T02:14:45.227Z,25.85
2023-02-15T02:15:17.519Z,26.13
2023-02-15T02:16:00.090Z,25.98
2023-02-15T02:17:02.621Z,24.10
2023-02-15T02:18:13.212Z,23.38
2023-02-15T02:18:47.946Z,22.63
2023-02-15T02:19:22.298Z,24.20
2023-02-15T02:20:12.265Z,24.00
2023-02-15T02:20:58.794Z,24.67
2023-02-15T02:21:42.312Z,23.08
2023-02-15T02:22:44.856Z,23.95
2023-02-15T02:23:22.151Z,23.63
2023-02-15T02:24:38.006Z,23.92
2023-02-15T02:25:47.042Z,22.58
2023-02-15T02:26:37.212Z,22.63
2023-02-15T02:27:20.971Z,22.52
2023-02-15T02:28:03.222Z,22.20
2023-02-15T02:28:49.253Z,23.05
2023-02-15T02:29:44.563Z,22.95
2023-02-15T02:31:06.780Z,23.02
2023-02-15T02:32:09.485Z,20.73
2023-02-15T02:32:53.264Z,21.52
2023-02-15T02:33:27.786Z,22.30
2023-02-15T02:34:02.442Z,22.40
2023-02-15T02:34:47.245Z,23.73
2023-02-15T02:35:25.206Z,23.35
2023-02-15T02:36:24.644Z,24.30
2023-02-15T02:36:59.033Z,22.25
2023-02-15T02:37:36.194Z,21.95
2023-02-15T02:38:43.046Z,23.90
2023-02-15T02:39:29.415Z,22.83
2023-02-15T02:40:05.230Z,23.30
2023-02-15T02:40:54.703Z,23.42
2023-02-15T02:41:44.429Z,21.65
2023-02-15T02:42:40.029Z,22.15
2023-02-15T02:43:31.293Z,22.75
2023-02-15T02:44:14.729Z,22.80
2023-02-15T02:44:53.281Z,22.58
2023-02-15T02:45:36.210Z,23.38
2023-02-15T02:46:23.337Z,22.38
2023-02-15T02:47:00.046Z,22.20
2023-02-15T02:47:46.148Z,23.48
2023-02-15T02:48:23.888Z,22.35
2023-02-15T02:48:56.177Z,22.05
2023-02-15T02:49:46.023Z,23.33
2023-02-15T02:50:22.949Z,23.50
2023-02-15T02:50:54.758Z,23.27
2023-02-15T02:51:26.434Z,23.33
2023-02-15T02:52:07.976Z,23.83
2023-02-15T02:52:46.497Z,24.17
2023-02-15T02:53:18.269Z,22.17
2023-02-15T02:53:57.411Z,23.52
2023-02-15T02:54:30.222Z,22.98
2023-02-15T02:55:05.059Z,22.77
2023-02-15T02:55:48.134Z,23.55
2023-02-15T02:56:30.998Z,23.70
2023-02-15T02:57:10.123Z,21.90
2023-02-15T02:58:06.251Z,22.55
2023-02-15T02:58:45.801Z,22.20
2023-02-15T02:59:26.351Z,22.67
2023-02-15T03:00:03.431Z,21.58
2023-02-15T03:00:45.517Z,24.05
2023-02-15T03:01:22.594Z,22.38
2023-02-15T03:02:02.536Z,22.77
2023-02-15T03:02:39.544Z,21.95
2023-02-15T03:03:16.994Z,23.23
2023-02-15T03:03:56.936Z,22.52
2023-02-15T03:04:33.470Z,24.17
2023-02-15T03:05:10.594Z,22.73
2023-02-15T03:05:46.539Z,23.15
2023-02-15T03:06:29.119Z,22.90
2023-02-15T03:07:26.917Z,23.40
2023-02-15T03:08:02.185Z,21.00
2023-02-15T03:08:39.046Z,22.85
2023-02-15T03:09:21.704Z,22.85
2023-02-15T03:09:55.669Z,21.38
2023-02-15T03:10:28.959Z,22.60
2023-02-15T03:11:02.792Z,24.30
2023-02-15T03:11:35.216Z,21.95
2023-02-15T03:12:07.191Z,23.33
2023-02-15T03:12:41.678Z,22.73
2023-02-15T03:13:13.551Z,22.00
2023-02-15T03:13:48.050Z,24.17
2023-02-15T03:14:20.580Z,22.83
2023-02-15T03:15:01.790Z,22.38
2023-02-15T03:15:57.423Z,22.88
2023-02-15T03:16:29.855Z,21.88
2023-02-15T03:17:03.116Z,21.75
2023-02-15T03:17:38.667Z,22.08
2023-02-15T03:18:10.317Z,22.40
2023-02-15T03:18:53.822Z,22.02
2023-02-15T03:19:30.759Z,22.10
2023-02-15T03:20:12.063Z,23.08
2023-02-15T03:20:44.963Z,21.75
2023-02-15T03:21:23.282Z,21.73
2023-02-15T03:22:14.333Z,22.17
2023-02-15T03:23:10.245Z,21.58
2023-02-15T03:23:42.091Z,21.83
2023-02-15T03:24:17.460Z,20.98
2023-02-15T03:25:08.639Z,20.80
2023-02-15T03:25:46.724Z,20.92
2023-02-15T03:26:19.573Z,20.73
2023-02-15T03:26:52.826Z,21.77
2023-02-15T03:27:28.505Z,22.00
2023-02-15T03:28:04.702Z,22.23
2023-02-15T03:28:47.627Z,21.88
2023-02-15T03:29:23.211Z,21.15
2023-02-15T03:29:58.339Z,22.58
2023-02-15T03:30:32.343Z,21.80
2023-02-15T03:31:06.626Z,21.42
2023-02-15T03:31:42.762Z,22.27
2023-02-15T03:32:16.457Z,21.48
2023-02-15T03:32:49.456Z,22.38
2023-02-15T03:33:23.321Z,21.38
2023-02-15T03:34:03.232Z,22.45
2023-02-15T03:34:35.051Z,21.85
2023-02-15T03:35:07.797Z,21.10
2023-02-15T03:36:05.960Z,22.58
2023-02-15T03:36:46.088Z,20.33
2023-02-15T03:37:42.106Z,20.30
2023-02-15T03:38:18.838Z,20.20
2023-02-15T03:39:13.260Z,19.88
2023-02-15T03:39:57.066Z,20.83
2023-02-15T03:40:58.115Z,23.80
2023-02-15T03:41:35.261Z,20.73
2023-02-15T03:42:19.672Z,22.30
2023-02-15T03:42:59.798Z,23.30
2023-02-15T03:43:54.575Z,24.42
2023-02-15T03:44:30.466Z,20.77
2023-02-15T03:45:06.899Z,22.35
2023-02-15T03:45:55.449Z,21.02
2023-02-15T03:46:30.366Z,21.00
2023-02-15T03:47:15.607Z,20.17
2023-02-15T03:47:50.205Z,21.75
2023-02-15T03:48:29.961Z,21.25
2023-02-15T03:49:07.282Z,21.58
2023-02-15T03:49:49.719Z,21.40
2023-02-15T03:50:50.423Z,20.70
2023-02-15T03:51:35.892Z,20.23
2023-02-15T03:52:10.602Z,19.67
2023-02-15T03:52:42.392Z,21.55
2023-02-15T03:53:16.516Z,21.67
2023-02-15T03:53:50.070Z,22.25
2023-02-15T03:54:43.994Z,21.38
2023-02-15T03:55:15.800Z,21.38
2023-02-15T03:55:49.497Z,21.60
2023-02-15T03:56:21.351Z,21.30
2023-02-15T03:57:12.904Z,21.05
2023-02-15T03:58:03.755Z,20.60
2023-02-15T03:58:53.946Z,20.60
2023-02-15T03:59:44.236Z,20.08
2023-02-15T04:00:44.327Z,20.60
2023-02-15T04:01:46.698Z,19.70
2023-02-15T04:02:25.376Z,20.73
2023-02-15T04:03:08.823Z,20.98
2023-02-15T04:03:58.759Z,21.45
2023-02-15T04:04:36.969Z,20.25
2023-02-15T04:05:08.590Z,22.13
2023-02-15T04:05:40.544Z,21.35
2023-02-15T04:06:12.211Z,21.55
2023-02-15T04:06:43.817Z,21.48
2023-02-15T04:07:15.627Z,22.02
2023-02-15T04:07:47.359Z,21.75
2023-02-15T04:08:19.008Z,21.35
2023-02-15T04:09:08.905Z,22.05
2023-02-15T04:09:59.349Z,19.90
2023-02-15T04:10:49.506Z,21.10
2023-02-15T04:11:21.204Z,20.48
2023-02-15T04:11:53.128Z,20.13
2023-02-15T04:12:24.922Z,21.35
2023-02-15T04:12:57.399Z,22.23
2023-02-15T04:13:33.321Z,20.45
2023-02-15T04:14:25.017Z,20.85
2023-02-15T04:15:15.102Z,21.13
2023-02-15T04:16:06.006Z,19.65
2023-02-15T04:16:38.324Z,19.23
2023-02-15T04:17:10.746Z,20.65
2023-02-15T04:17:42.352Z,19.55
2023-02-15T04:18:13.969Z,20.50
2023-02-15T04:19:04.467Z,20.27
2023-02-15T04:19:54.971Z,20.48
2023-02-15T04:20:45.411Z,21.20
2023-02-15T04:21:35.676Z,19.48
2023-02-15T04:22:26.235Z,19.95
2023-02-15T04:23:16.080Z,19.25
2023-02-15T04:24:06.045Z,20.50
2023-02-15T04:24:55.956Z,20.90
2023-02-15T04:25:27.610Z,20.90
2023-02-15T04:25:59.307Z,20.45
2023-02-15T04:26:31.012Z,21.92
2023-02-15T04:27:04.219Z,21.17
2023-02-15T04:27:36.660Z,21.88
2023-02-15T04:28:08.825Z,20.50
2023-02-15T04:28:40.494Z,21.10
2023-02-15T04:29:12.250Z,20.83
2023-02-15T04:29:43.851Z,20.02
2023-02-15T04:30:16.941Z,21.60
2023-02-15T04:30:48.770Z,21.88
2023-02-15T04:31:20.454Z,20.88
2023-02-15T04:31:54.005Z,22.35
2023-02-15T04:32:25.753Z,21.60
2023-02-15T04:32:58.308Z,22.73
2023-02-15T04:33:30.006Z,22.40
2023-02-15T04:34:01.595Z,21.75
2023-02-15T04:34:33.310Z,22.25
2023-02-15T04:35:06.610Z,22.42
2023-02-15T04:35:38.232Z,22.17
2023-02-15T04:36:09.827Z,24.90
2023-02-15T04:36:41.870Z,23.60
2023-02-15T04:37:13.501Z,24.58
2023-02-15T04:37:45.717Z,24.80
2023-02-15T04:38:17.494Z,25.83
2023-02-15T04:38:49.129Z,24.60
2023-02-15T04:39:20.955Z,25.05
2023-02-15T04:39:52.774Z,24.15
2023-02-15T04:40:24.625Z,24.40
2023-02-15T04:40:56.194Z,25.88
2023-02-15T04:41:27.757Z,24.80
2023-02-15T04:41:59.332Z,24.65
2023-02-15T04:42:31.074Z,24.85
2023-02-15T04:43:02.707Z,24.23
2023-02-15T04:43:34.350Z,24.55
2023-02-15T04:44:05.987Z,23.35
2023-02-15T04:44:37.597Z,23.50
2023-02-15T04:45:09.385Z,23.30
2023-02-15T04:45:41.100Z,24.20
2023-02-15T04:46:13.080Z,23.15
2023-02-15T04:46:44.821Z,24.67
2023-02-15T04:47:16.457Z,25.73
2023-02-15T04:47:48.152Z,26.50
2023-02-15T04:48:19.800Z,25.50
2023-02-15T04:48:51.615Z,25.13
2023-02-15T04:49:23.294Z,23.85
2023-02-15T04:49:56.763Z,23.75
2023-02-15T04:50:29.515Z,22.90
2023-02-15T04:51:07.513Z,20.60
2023-02-15T04:51:39.627Z,20.42
2023-02-15T04:52:11.253Z,21.35
2023-02-15T04:52:42.914Z,20.58
2023-02-15T04:53:14.756Z,22.63
2023-02-15T04:53:46.532Z,24.25
2023-02-15T04:54:18.299Z,21.35
2023-02-15T04:54:49.934Z,20.52
2023-02-15T04:55:21.644Z,21.85
2023-02-15T04:55:53.213Z,20.63
2023-02-15T04:56:25.085Z,19.80
2023-02-15T04:56:56.661Z,21.27
2023-02-15T04:57:28.249Z,20.20
2023-02-15T04:58:00.198Z,23.17
2023-02-15T04:58:31.838Z,23.52
2023-02-15T04:59:03.479Z,22.48
2023-02-15T04:59:35.104Z,22.35
2023-02-15T05:00:07.526Z,22.17
2023-02-15T05:00:39.292Z,20.90
2023-02-15T05:01:11.602Z,20.77
2023-02-15T05:01:43.537Z,20.80
2023-02-15T05:02:15.565Z,21.15
2023-02-15T05:02:47.233Z,22.35
2023-02-15T05:03:19.732Z,20.70
2023-02-15T05:03:51.492Z,20.92
2023-02-15T05:04:23.674Z,22.13
2023-02-15T05:04:55.554Z,20.05
2023-02-15T05:05:27.245Z,21.42
2023-02-15T05:05:58.945Z,20.65
2023-02-15T05:06:30.676Z,21.05
2023-02-15T05:07:02.560Z,20.58
2023-02-15T05:07:34.169Z,20.20
2023-02-15T05:08:06.174Z,20.73
2023-02-15T05:08:37.823Z,20.63
2023-02-15T05:09:09.613Z,21.20
2023-02-15T05:09:41.360Z,20.17
2023-02-15T05:10:13.294Z,20.08
2023-02-15T05:10:44.886Z,20.45
2023-02-15T05:11:16.500Z,20.40
2023-02-15T05:11:48.436Z,21.13
2023-02-15T05:12:20.046Z,20.73
2023-02-15T05:12:51.745Z,21.45
2023-02-15T05:13:23.410Z,20.25
2023-02-15T05:13:55.126Z,21.60
2023-02-15T05:14:26.842Z,21.90
2023-02-15T05:14:58.440Z,21.58
2023-02-15T05:15:30.006Z,20.40
2023-02-15T05:16:01.861Z,20.45
2023-02-15T05:16:33.856Z,20.73
2023-02-15T05:17:06.297Z,20.63
2023-02-15T05:17:38.122Z,22.13
2023-02-15T05:18:09.978Z,21.30
2023-02-15T05:18:41.759Z,21.75
2023-02-15T05:19:13.817Z,22.60
2023-02-15T05:19:45.462Z,21.90
2023-02-15T05:20:17.579Z,24.02
2023-02-15T05:20:49.769Z,23.13
2023-02-15T05:21:21.543Z,22.75
2023-02-15T05:21:53.236Z,22.63
2023-02-15T05:22:24.825Z,21.80
2023-02-15T05:22:56.558Z,22.60
2023-02-15T05:23:28.200Z,22.17
2023-02-15T05:23:59.808Z,21.45
2023-02-15T05:24:49.753Z,22.50
2023-02-15T05:25:40.023Z,20.40
2023-02-15T05:26:32.139Z,21.58
2023-02-15T05:27:22.588Z,20.30
2023-02-15T05:28:12.346Z,21.52
2023-02-15T05:28:43.947Z,24.23
2023-02-15T05:29:15.528Z,23.17
2023-02-15T05:29:47.112Z,21.95
2023-02-15T05:30:19.023Z,22.38
2023-02-15T05:31:12.967Z,22.02
2023-02-15T05:31:48.408Z,21.80
2023-02-15T05:32:20.271Z,22.17
2023-02-15T05:32:52.014Z,21.65
2023-02-15T05:33:23.664Z,23.25
2023-02-15T05:33:55.236Z,22.75
2023-02-15T05:34:26.873Z,22.85
2023-02-15T05:34:58.477Z,22.40
2023-02-15T05:35:30.100Z,24.55
2023-02-15T05:36:02.808Z,24.08
2023-02-15T05:36:34.839Z,24.90
2023-02-15T05:37:06.413Z,23.77
2023-02-15T05:37:38.009Z,24.73
2023-02-15T05:38:10.025Z,25.92
2023-02-15T05:38:41.739Z,25.00
2023-02-15T05:39:13.355Z,26.23
2023-02-15T05:39:44.933Z,24.83
2023-02-15T05:40:16.665Z,26.08
2023-02-15T05:40:50.055Z,25.17
2023-02-15T05:41:22.015Z,23.38
2023-02-15T05:41:53.654Z,25.30
2023-02-15T05:42:25.273Z,24.23
2023-02-15T05:42:57.484Z,23.70
2023-02-15T05:43:30.485Z,24.10
2023-02-15T05:44:02.098Z,23.63
2023-02-15T05:44:33.871Z,24.35
2023-02-15T05:45:06.645Z,23.02
2023-02-15T05:45:38.605Z,23.42
2023-02-15T05:46:11.148Z,22.63
2023-02-15T05:46:42.738Z,23.10
2023-02-15T05:47:14.377Z,22.95
2023-02-15T05:47:46.312Z,22.38
2023-02-15T05:48:19.017Z,22.98
2023-02-15T05:48:50.587Z,22.90
2023-02-15T05:49:22.248Z,21.48
2023-02-15T05:49:53.780Z,21.75
2023-02-15T05:50:26.103Z,22.02
2023-02-15T05:51:06.993Z,22.00
2023-02-15T05:51:38.620Z,21.73
2023-02-15T05:52:10.257Z,21.58
2023-02-15T05:52:42.351Z,21.58
2023-02-15T05:53:14.085Z,22.75
2023-02-15T05:53:45.692Z,22.67
2023-02-15T05:54:17.366Z,21.00
2023-02-15T05:54:49.297Z,22.30
2023-02-15T05:55:21.222Z,21.55
2023-02-15T05:55:53.001Z,22.90
2023-02-15T05:56:24.793Z,22.50
2023-02-15T05:56:56.413Z,23.00
2023-02-15T05:57:28.235Z,22.45
2023-02-15T05:58:00.003Z,21.30
2023-02-15T05:58:34.881Z,20.52
2023-02-15T05:59:06.556Z,20.92
2023-02-15T05:59:38.175Z,21.33
2023-02-15T06:00:10.989Z,23.10
2023-02-15T06:00:42.598Z,22.70
2023-02-15T06:01:18.414Z,22.13
2023-02-15T06:01:50.060Z,22.05
2023-02-15T06:02:21.827Z,21.40
2023-02-15T06:02:53.458Z,21.90
2023-02-15T06:03:26.788Z,20.70
2023-02-15T06:03:58.446Z,20.10
2023-02-15T06:04:30.067Z,20.50
2023-02-15T06:05:01.781Z,22.17
2023-02-15T06:05:33.525Z,21.65
2023-02-15T06:06:05.689Z,20.80
2023-02-15T06:06:37.682Z,20.73
2023-02-15T06:07:09.346Z,20.55
2023-02-15T06:07:44.648Z,20.25
2023-02-15T06:08:16.602Z,22.30
2023-02-15T06:08:48.547Z,21.67
2023-02-15T06:09:21.186Z,21.05
2023-02-15T06:09:52.872Z,20.40
2023-02-15T06:10:24.458Z,21.55
2023-02-15T06:10:56.133Z,21.10
2023-02-15T06:11:27.753Z,20.27
2023-02-15T06:11:59.358Z,20.83
2023-02-15T06:12:31.723Z,21.63
2023-02-15T06:13:03.422Z,20.60
2023-02-15T06:13:38.355Z,20.40
2023-02-15T06:14:10.516Z,21.13
2023-02-15T06:14:42.113Z,21.40
2023-02-15T06:15:14.996Z,21.30
2023-02-15T06:15:46.609Z,21.25
2023-02-15T06:16:18.284Z,21.98
2023-02-15T06:16:50.045Z,21.38
2023-02-15T06:17:22.792Z,21.25
2023-02-15T06:17:54.454Z,21.13
2023-02-15T06:18:26.542Z,21.83
2023-02-15T06:19:00.177Z,22.27
2023-02-15T06:19:31.808Z,21.45
2023-02-15T06:20:04.323Z,21.98
2023-02-15T06:20:35.987Z,22.15
2023-02-15T06:21:07.926Z,22.23
2023-02-15T06:21:39.576Z,21.90
2023-02-15T06:22:11.225Z,21.92
2023-02-15T06:22:43.214Z,22.75
2023-02-15T06:23:15.089Z,22.05
2023-02-15T06:23:46.725Z,22.30
2023-02-15T06:24:18.340Z,22.20
2023-02-15T06:24:50.096Z,22.75
2023-02-15T06:25:21.893Z,22.30
2023-02-15T06:25:54.610Z,22.55
2023-02-15T06:26:26.375Z,23.52
2023-02-15T06:26:57.986Z,22.90
2023-02-15T06:27:29.732Z,22.60
2023-02-15T06:28:01.332Z,25.38
2023-02-15T06:28:32.966Z,22.73
2023-02-15T06:29:04.766Z,22.25
2023-02-15T06:29:36.535Z,21.67
2023-02-15T06:30:09.413Z,23.10
2023-02-15T06:30:41.287Z,22.98
2023-02-15T06:31:13.080Z,22.92
2023-02-15T06:31:44.770Z,22.92
2023-02-15T06:32:16.790Z,24.20
2023-02-15T06:32:48.408Z,24.23
2023-02-15T06:33:20.186Z,25.10
2023-02-15T06:33:51.888Z,23.63
2023-02-15T06:34:23.555Z,27.58
2023-02-15T06:34:55.114Z,25.58
2023-02-15T06:35:26.789Z,25.38
2023-02-15T06:35:58.345Z,24.05
2023-02-15T06:36:31.625Z,25.20
2023-02-15T06:37:03.258Z,24.60
2023-02-15T06:37:34.851Z,23.27
2023-02-15T06:38:06.491Z,23.98
2023-02-15T06:38:38.163Z,23.70
2023-02-15T06:39:09.778Z,23.75
2023-02-15T06:39:41.621Z,24.38
2023-02-15T06:40:13.647Z,24.80
2023-02-15T06:40:45.360Z,23.95
2023-02-15T06:41:16.905Z,21.58
2023-02-15T06:41:48.535Z,22.73
2023-02-15T06:42:20.193Z,23.20
2023-02-15T06:42:51.782Z,21.92
2023-02-15T06:43:23.389Z,21.83
2023-02-15T06:43:55.159Z,23.15
2023-02-15T06:44:26.818Z,22.60
2023-02-15T06:44:58.465Z,23.58
2023-02-15T06:45:30.333Z,22.25
2023-02-15T06:46:02.353Z,22.92
2023-02-15T06:46:34.307Z,21.17
2023-02-15T06:47:05.972Z,22.80
2023-02-15T06:47:38.112Z,23.63
2023-02-15T06:48:10.823Z,22.33
2023-02-15T06:48:42.540Z,22.65
2023-02-15T06:49:14.237Z,22.13
2023-02-15T06:49:45.857Z,23.25
2023-02-15T06:50:17.638Z,22.65
2023-02-15T06:50:50.240Z,22.60
2023-02-15T06:51:21.999Z,21.33
2023-02-15T06:51:53.612Z,23.10
2023-02-15T06:52:25.281Z,22.60
2023-02-15T06:52:58.317Z,21.85
2023-02-15T06:53:30.152Z,22.42
2023-02-15T06:54:01.868Z,22.75
2023-02-15T06:54:33.494Z,20.55
2023-02-15T06:55:06.553Z,21.80
2023-02-15T06:55:38.278Z,21.33
2023-02-15T06:56:11.197Z,22.10
2023-02-15T06:56:43.162Z,20.75
2023-02-15T06:57:14.979Z,22.73
2023-02-15T06:57:46.622Z,21.08
2023-02-15T06:58:18.245Z,20.95
2023-02-15T06:58:53.797Z,21.17
2023-02-15T06:59:25.581Z,21.25
2023-02-15T06:59:59.440Z,20.85
2023-02-15T07:00:31.242Z,22.25
2023-02-15T07:01:04.050Z,22.42
2023-02-15T07:01:38.030Z,21.52
2023-02-15T07:02:12.258Z,22.50
2023-02-15T07:02:43.837Z,22.55
2023-02-15T07:03:16.018Z,22.42
2023-02-15T07:03:47.972Z,21.17
2023-02-15T07:04:19.921Z,22.42
2023-02-15T07:04:52.016Z,21.27
2023-02-15T07:05:24.532Z,21.23
2023-02-15T07:05:57.743Z,21.95
2023-02-15T07:06:34.436Z,23.52
2023-02-15T07:07:10.423Z,22.55
2023-02-15T07:07:42.637Z,23.17
2023-02-15T07:08:14.980Z,22.95
2023-02-15T07:08:47.507Z,22.85
2023-02-15T07:09:19.620Z,22.55
2023-02-15T07:09:51.707Z,23.25
2023-02-15T07:10:23.860Z,21.67
2023-02-15T07:11:20.587Z,24.08
2023-02-15T07:12:11.509Z,23.80
2023-02-15T07:12:43.888Z,24.92
2023-02-15T07:13:16.110Z,25.30
2023-02-15T07:13:48.884Z,26.92
2023-02-15T07:14:21.097Z,27.58
2023-02-15T07:14:53.442Z,27.80
2023-02-15T07:15:25.749Z,27.52
2023-02-15T07:15:58.298Z,27.33
2023-02-15T07:16:30.579Z,25.80
2023-02-15T07:17:02.805Z,25.73
2023-02-15T07:17:36.522Z,24.65
2023-02-15T07:18:09.022Z,23.05
2023-02-15T07:18:41.173Z,24.15
2023-02-15T07:19:13.401Z,24.45
2023-02-15T07:19:45.576Z,23.48
2023-02-15T07:20:23.837Z,23.00
2023-02-15T07:20:55.885Z,22.27
2023-02-15T07:21:27.921Z,22.60
2023-02-15T07:22:00.085Z,23.25
2023-02-15T07:22:32.544Z,22.27
2023-02-15T07:23:05.561Z,22.27
2023-02-15T07:23:38.564Z,23.42
2023-02-15T07:24:10.307Z,22.77
2023-02-15T07:24:42.049Z,21.83
2023-02-15T07:25:13.798Z,21.65
2023-02-15T07:25:45.444Z,22.60
2023-02-15T07:26:17.120Z,22.52
2023-02-15T07:26:48.876Z,21.88
2023-02-15T07:27:20.483Z,22.45
2023-02-15T07:28:00.112Z,22.48
2023-02-15T07:28:32.434Z,23.73
2023-02-15T07:29:04.132Z,21.15
2023-02-15T07:29:35.746Z,21.95
2023-02-15T07:30:09.666Z,23.02
2023-02-15T07:30:41.651Z,21.10
2023-02-15T07:31:13.387Z,20.92
2023-02-15T07:31:46.452Z,19.80
2023-02-15T07:32:18.258Z,20.88